Time;durP1;ratioP1;P1;durP2;ratioP2;P2;SDS_P1;SDS_P2;PMS_P1;PMS_P2;Temp;Humidity;BMP_temperature;BMP_pressure;BME280_temperature;BME280_humidity;BME280_pressure;Samples;Min_cycle;Max_cycle;Signal;HPM_P1;HPM_P2
2022/03/11 00:00:26;;;;;;;13.13;9.30;;;5.50;81.20;;;;;;5048985;28;21004;-65
2022/03/11 00:02:53;;;;;;;14.30;10.00;;;5.40;81.70;;;;;;5049479;28;20475;-66
2022/03/11 00:05:19;;;;;;;13.67;10.53;;;5.30;82.30;;;;;;5037027;28;20456;-66
2022/03/11 00:07:46;;;;;;;14.40;9.80;;;5.40;82.60;;;;;;5029968;28;20453;-66
2022/03/11 00:10:13;;;;;;;14.87;9.80;;;5.40;82.80;;;;;;5046587;28;20440;-66
2022/03/11 00:12:42;;;;;;;12.47;9.63;;;5.40;83.00;;;;;;5050248;28;20587;-66
2022/03/11 00:15:09;;;;;;;12.20;10.10;;;5.40;83.50;;;;;;5050425;28;20464;-66
2022/03/11 00:17:36;;;;;;;13.93;9.43;;;5.30;83.40;;;;;;5049386;28;21048;-67
2022/03/11 00:20:05;;;;;;;14.90;10.93;;;5.30;83.80;;;;;;5051502;28;20479;-66
2022/03/11 00:22:32;;;;;;;14.33;9.90;;;5.30;83.90;;;;;;5051611;28;20887;-66
2022/03/11 00:24:59;;;;;;;16.83;10.43;;;5.30;84.00;;;;;;5051612;28;20450;-66
2022/03/11 00:27:26;;;;;;;15.63;10.43;;;5.10;84.80;;;;;;5052081;28;20480;-67
2022/03/11 00:29:54;;;;;;;13.10;10.10;;;5.00;85.50;;;;;;5051943;28;20534;-68
2022/03/11 00:32:21;;;;;;;15.47;10.50;;;4.90;86.60;;;;;;5052008;28;20482;-68
2022/03/11 00:34:48;;;;;;;13.87;9.63;;;4.90;86.50;;;;;;5051540;28;20452;-67
2022/03/11 00:37:15;;;;;;;14.07;10.50;;;4.80;87.00;;;;;;5051534;28;20459;-66
2022/03/11 00:39:42;;;;;;;16.13;11.47;;;4.70;87.40;;;;;;5051440;28;21062;-67
2022/03/11 00:42:08;;;;;;;11.83;9.97;;;4.70;87.60;;;;;;5051262;28;20498;-66
2022/03/11 00:44:36;;;;;;;16.07;10.57;;;4.60;88.40;;;;;;5050946;28;20482;-67
2022/03/11 00:47:05;;;;;;;16.80;10.90;;;4.60;89.00;;;;;;5052019;28;20460;-67
2022/03/11 00:49:32;;;;;;;15.57;10.83;;;4.50;89.00;;;;;;5051358;28;20450;-67
2022/03/11 00:51:59;;;;;;;13.90;11.67;;;4.40;89.80;;;;;;5051092;28;20514;-66
2022/03/11 00:54:26;;;;;;;13.30;10.20;;;4.40;90.20;;;;;;5050999;28;20470;-66
2022/03/11 00:56:52;;;;;;;17.43;11.40;;;4.30;90.60;;;;;;5051513;28;20444;-66
2022/03/11 00:59:20;;;;;;;14.87;11.60;;;4.30;90.70;;;;;;5050248;28;21101;-66
2022/03/11 01:01:47;;;;;;;13.90;10.60;;;4.30;90.80;;;;;;5051110;28;20522;-66
2022/03/11 01:04:15;;;;;;;13.93;12.00;;;4.30;90.90;;;;;;5050809;28;20937;-67
2022/03/11 01:06:42;;;;;;;14.73;10.80;;;4.30;91.00;;;;;;5050675;28;20896;-66
2022/03/11 01:09:09;;;;;;;16.10;11.90;;;4.20;91.20;;;;;;5050753;28;21102;-66
2022/03/11 01:11:36;;;;;;;20.83;12.67;;;4.20;91.20;;;;;;5050782;28;20476;-68
2022/03/11 01:14:04;;;;;;;15.37;10.07;;;4.20;91.40;;;;;;5050534;28;20510;-67
2022/03/11 01:16:31;;;;;;;14.03;12.20;;;4.20;91.80;;;;;;5050847;28;20458;-68
2022/03/11 01:18:57;;;;;;;16.50;12.60;;;4.10;91.80;;;;;;5050581;28;20446;-67
2022/03/11 01:21:26;;;;;;;16.37;11.93;;;4.10;92.00;;;;;;5050168;28;20487;-67
2022/03/11 01:23:53;;;;;;;16.23;11.33;;;4.10;91.90;;;;;;5050605;28;20447;-65
2022/03/11 01:26:20;;;;;;;15.70;11.20;;;4.20;92.00;;;;;;5050143;28;20938;-65
2022/03/11 01:28:47;;;;;;;20.70;12.60;;;4.10;92.00;;;;;;5050570;28;20452;-66
2022/03/11 01:31:14;;;;;;;19.50;12.20;;;4.10;92.00;;;;;;5050298;28;20487;-67
2022/03/11 01:33:41;;;;;;;19.67;13.87;;;4.10;92.10;;;;;;5050278;28;20483;-66
2022/03/11 01:36:12;;;;;;;16.37;12.93;;;4.10;92.30;;;;;;5050313;28;20448;-66
2022/03/11 01:38:40;;;;;;;17.70;12.10;;;4.00;92.30;;;;;;5050580;28;20448;-66
2022/03/11 01:41:09;;;;;;;16.07;12.83;;;3.90;92.70;;;;;;5050366;28;20495;-66
2022/03/11 01:43:51;;;;;;;15.87;12.97;;;3.80;93.10;;;;;;5050504;28;20451;-67
2022/03/11 01:46:18;;;;;;;16.93;12.63;;;3.80;93.50;;;;;;5050030;28;20444;-66
2022/03/11 01:48:47;;;;;;;16.13;13.00;;;3.80;93.60;;;;;;5050118;28;20535;-66
2022/03/11 01:51:14;;;;;;;18.20;12.90;;;3.70;93.80;;;;;;5050258;28;20509;-66
2022/03/11 01:53:43;;;;;;;17.40;13.73;;;3.70;94.10;;;;;;5050295;28;20456;-66
2022/03/11 01:56:10;;;;;;;18.00;12.83;;;3.70;94.20;;;;;;5050077;28;20483;-67
2022/03/11 01:58:39;;;;;;;20.13;14.30;;;3.70;94.50;;;;;;5050143;28;20553;-67
2022/03/11 02:01:06;;;;;;;19.33;15.40;;;3.70;94.60;;;;;;5050274;28;20494;-67
2022/03/11 02:03:33;;;;;;;16.87;13.80;;;3.70;94.60;;;;;;5050207;28;20452;-67
2022/03/11 02:06:02;;;;;;;17.47;13.70;;;3.70;94.60;;;;;;5049949;28;20448;-67
2022/03/11 02:08:29;;;;;;;22.73;15.93;;;3.70;94.60;;;;;;5050197;28;20444;-67
2022/03/11 02:10:58;;;;;;;20.10;14.77;;;3.80;94.60;;;;;;5051887;28;20440;-67
2022/03/11 02:13:25;;;;;;;21.30;15.47;;;3.90;94.50;;;;;;5054171;28;20454;-66
2022/03/11 02:15:52;;;;;;;18.50;14.13;;;3.90;94.60;;;;;;5054176;28;20448;-67
2022/03/11 02:18:19;;;;;;;22.23;16.00;;;3.80;94.60;;;;;;5054375;28;20549;-67
2022/03/11 02:20:47;;;;;;;19.73;16.00;;;3.80;94.90;;;;;;5054085;28;20520;-66
2022/03/11 02:23:15;;;;;;;18.70;14.73;;;3.70;94.90;;;;;;5054222;28;20454;-67
2022/03/11 02:25:43;;;;;;;23.07;16.70;;;3.70;94.90;;;;;;5053633;28;20455;-66
2022/03/11 02:28:10;;;;;;;21.10;15.00;;;3.70;94.90;;;;;;5053875;28;20954;-66
2022/03/11 02:30:37;;;;;;;21.53;16.83;;;3.60;95.10;;;;;;5054078;28;20526;-67
2022/03/11 02:33:04;;;;;;;19.93;15.23;;;3.60;95.40;;;;;;5053705;28;20463;-67
2022/03/11 02:35:31;;;;;;;21.30;16.00;;;3.50;95.40;;;;;;5053592;28;20531;-67
2022/03/11 02:37:58;;;;;;;23.13;15.97;;;3.50;95.40;;;;;;5053498;28;20534;-68
2022/03/11 02:40:25;;;;;;;22.50;18.13;;;3.50;95.90;;;;;;5053525;28;20492;-66
2022/03/11 02:42:53;;;;;;;23.63;17.20;;;3.40;95.80;;;;;;5053571;28;20464;-66
2022/03/11 02:45:20;;;;;;;21.67;16.17;;;3.40;95.80;;;;;;5053422;28;20446;-66
2022/03/11 02:47:46;;;;;;;22.43;17.43;;;3.30;96.10;;;;;;5053892;28;20952;-67
2022/03/11 02:50:13;;;;;;;22.00;16.73;;;3.20;96.30;;;;;;5053407;28;20448;-66
2022/03/11 02:52:40;;;;;;;22.67;16.40;;;3.20;96.50;;;;;;5053509;28;20781;-66
2022/03/11 02:55:08;;;;;;;22.73;18.33;;;3.10;96.20;;;;;;5053521;28;20495;-67
2022/03/11 02:57:35;;;;;;;23.57;17.40;;;3.10;96.60;;;;;;5054250;28;20444;-66
2022/03/11 03:00:04;;;;;;;25.43;17.33;;;3.00;96.70;;;;;;5053829;28;20881;-67
2022/03/11 03:02:31;;;;;;;21.67;16.87;;;3.00;96.70;;;;;;5053213;28;20873;-67
2022/03/11 03:04:58;;;;;;;22.17;16.67;;;3.00;96.80;;;;;;5052724;28;20447;-67
2022/03/11 03:07:25;;;;;;;23.30;17.53;;;3.00;96.60;;;;;;5053034;28;20452;-66
2022/03/11 03:09:52;;;;;;;23.50;16.90;;;3.00;96.90;;;;;;5053199;28;20452;-67
2022/03/11 03:12:18;;;;;;;23.27;16.30;;;3.00;96.90;;;;;;5053184;28;20468;-67
2022/03/11 03:14:45;;;;;;;25.53;18.03;;;2.90;97.10;;;;;;5052613;28;20586;-67
2022/03/11 03:17:14;;;;;;;23.63;17.73;;;2.90;97.00;;;;;;5052847;28;20460;-67
2022/03/11 03:19:41;;;;;;;24.67;18.20;;;2.90;97.00;;;;;;5052631;28;20452;-66
2022/03/11 03:22:07;;;;;;;22.03;16.20;;;2.90;96.90;;;;;;5051908;28;20543;-66
2022/03/11 03:24:34;;;;;;;22.33;16.67;;;2.80;96.60;;;;;;5052807;28;20451;-66
2022/03/11 03:27:02;;;;;;;21.17;16.50;;;2.80;96.70;;;;;;5052785;28;20535;-67
2022/03/11 03:29:29;;;;;;;22.73;16.23;;;2.80;96.90;;;;;;5052892;28;20849;-67
2022/03/11 03:31:57;;;;;;;24.67;16.30;;;2.80;97.00;;;;;;5052657;28;20460;-67
2022/03/11 03:34:28;;;;;;;20.93;15.63;;;2.80;96.60;;;;;;5052267;28;20536;-66
2022/03/11 03:36:56;;;;;;;22.20;16.23;;;2.80;96.70;;;;;;5052590;28;20452;-66
2022/03/11 03:39:22;;;;;;;21.03;15.87;;;2.80;96.40;;;;;;5052444;28;20448;-66
2022/03/11 03:41:49;;;;;;;20.17;15.17;;;2.80;96.30;;;;;;5052481;28;20490;-66
2022/03/11 03:44:16;;;;;;;21.93;14.60;;;2.70;96.30;;;;;;5052439;28;20452;-67
2022/03/11 03:46:43;;;;;;;21.03;15.90;;;2.70;96.60;;;;;;5052248;28;20444;-67
2022/03/11 03:49:10;;;;;;;21.93;17.90;;;2.70;96.50;;;;;;5052238;28;20487;-66
2022/03/11 03:51:39;;;;;;;21.73;15.87;;;2.60;96.50;;;;;;5052410;28;20543;-67
2022/03/11 03:54:06;;;;;;;23.13;16.60;;;2.60;96.80;;;;;;5052112;28;20547;-66
2022/03/11 03:56:36;;;;;;;21.10;15.23;;;2.50;96.60;;;;;;5052489;28;20459;-66
2022/03/11 03:59:04;;;;;;;21.57;16.80;;;2.50;96.60;;;;;;5052614;28;20455;-66
2022/03/11 04:01:32;;;;;;;21.63;13.80;;;2.40;96.60;;;;;;5052197;28;20494;-66
2022/03/11 04:03:59;;;;;;;21.43;15.70;;;2.40;96.70;;;;;;5052733;28;20904;-66
2022/03/11 04:06:27;;;;;;;16.53;13.73;;;2.40;96.40;;;;;;5052413;28;20459;-67
2022/03/11 04:08:56;;;;;;;19.30;14.67;;;2.40;96.70;;;;;;5054051;28;20440;-67
2022/03/11 04:11:23;;;;;;;18.70;14.03;;;2.40;96.20;;;;;;5057549;28;20475;-67
2022/03/11 04:13:50;;;;;;;19.50;14.20;;;2.40;96.20;;;;;;5055628;28;20450;-67
2022/03/11 04:16:18;;;;;;;18.70;12.93;;;2.30;96.10;;;;;;5053996;28;20890;-67
2022/03/11 04:18:45;;;;;;;23.00;15.10;;;2.30;96.20;;;;;;5057873;28;20526;-67
2022/03/11 04:21:13;;;;;;;20.03;14.10;;;2.20;96.10;;;;;;5062651;28;21207;-66
2022/03/11 04:23:40;;;;;;;18.30;13.90;;;2.20;96.10;;;;;;5054114;28;20474;-67
2022/03/11 04:26:09;;;;;;;57.13;17.30;;;2.20;96.40;;;;;;5053649;28;20454;-66
2022/03/11 04:28:37;;;;;;;20.37;14.10;;;2.10;96.10;;;;;;5054878;28;20458;-67
2022/03/11 04:31:04;;;;;;;19.10;14.07;;;2.00;96.20;;;;;;5053126;28;20518;-66
2022/03/11 04:33:31;;;;;;;20.87;14.17;;;2.00;96.30;;;;;;5051863;28;20883;-67
2022/03/11 04:35:58;;;;;;;21.43;14.07;;;2.00;96.10;;;;;;5051387;28;20444;-68
2022/03/11 04:38:25;;;;;;;17.93;12.90;;;1.90;96.30;;;;;;5051691;28;20444;-67
2022/03/11 04:40:52;;;;;;;20.47;13.90;;;1.90;96.10;;;;;;5050749;28;20530;-68
2022/03/11 04:43:21;;;;;;;21.53;14.50;;;1.90;96.30;;;;;;5050922;28;20451;-67
2022/03/11 04:45:47;;;;;;;20.00;12.90;;;1.80;96.20;;;;;;5051026;28;20451;-67
2022/03/11 04:48:14;;;;;;;18.83;12.60;;;1.70;96.30;;;;;;5051437;28;20539;-66
2022/03/11 04:50:41;;;;;;;17.30;12.97;;;1.70;96.20;;;;;;5051367;28;20459;-67
2022/03/11 04:53:08;;;;;;;18.53;12.30;;;1.60;96.60;;;;;;5051162;28;20456;-67
2022/03/11 04:55:36;;;;;;;18.90;12.17;;;1.50;96.40;;;;;;5050941;28;20436;-67
2022/03/11 04:58:03;;;;;;;18.93;10.97;;;1.50;96.40;;;;;;5051023;28;21084;-67
2022/03/11 05:00:31;;;;;;;18.70;13.30;;;1.40;96.40;;;;;;5051121;28;20451;-67
2022/03/11 05:02:58;;;;;;;18.67;12.33;;;1.30;96.50;;;;;;5050890;28;20479;-67
2022/03/11 05:05:25;;;;;;;18.77;12.33;;;1.30;96.90;;;;;;5050664;28;20448;-67
2022/03/11 05:07:52;;;;;;;16.40;12.13;;;1.20;96.90;;;;;;5050697;28;20517;-67
2022/03/11 05:10:19;;;;;;;16.00;11.50;;;1.30;97.10;;;;;;5050754;28;20448;-66
2022/03/11 05:12:46;;;;;;;19.13;12.27;;;1.20;96.80;;;;;;5050976;28;20896;-66
2022/03/11 05:15:13;;;;;;;16.80;10.97;;;1.20;96.60;;;;;;5050514;28;20452;-67
2022/03/11 05:17:41;;;;;;;16.60;11.07;;;1.10;96.50;;;;;;5050793;28;20453;-66
2022/03/11 05:20:09;;;;;;;14.17;9.93;;;1.10;96.50;;;;;;5050696;28;20444;-66
2022/03/11 05:22:36;;;;;;;15.90;12.10;;;1.10;96.50;;;;;;5050661;28;20939;-66
2022/03/11 05:25:04;;;;;;;14.90;10.33;;;1.00;96.20;;;;;;5050037;28;20484;-66
2022/03/11 05:27:30;;;;;;;15.63;11.27;;;1.00;96.30;;;;;;5050905;28;20512;-66
2022/03/11 05:29:57;;;;;;;14.00;10.40;;;0.90;96.80;;;;;;5050286;28;20891;-66
2022/03/11 05:32:24;;;;;;;16.00;10.20;;;0.90;97.50;;;;;;5050506;28;20836;-69
2022/03/11 05:34:52;;;;;;;15.87;9.43;;;0.70;96.90;;;;;;5049854;28;20462;-68
2022/03/11 05:37:19;;;;;;;14.07;10.60;;;0.70;97.30;;;;;;5050424;28;20444;-71
2022/03/11 05:39:46;;;;;;;18.60;11.13;;;0.70;97.40;;;;;;5048631;28;20462;-69
2022/03/11 05:42:13;;;;;;;15.00;10.10;;;0.70;97.10;;;;;;5051336;28;20531;-66
2022/03/11 05:44:40;;;;;;;18.70;10.70;;;0.70;97.40;;;;;;5051372;28;20524;-66
2022/03/11 05:47:07;;;;;;;15.20;11.13;;;0.70;97.10;;;;;;5049968;28;20444;-67
2022/03/11 05:49:34;;;;;;;13.63;9.60;;;0.70;97.00;;;;;;5051827;28;20500;-66
2022/03/11 05:52:02;;;;;;;13.70;9.10;;;0.70;97.20;;;;;;5050043;28;20862;-67
2022/03/11 05:54:29;;;;;;;13.50;8.97;;;0.60;96.60;;;;;;5050289;28;20456;-67
2022/03/11 05:56:57;;;;;;;17.10;9.13;;;0.60;97.20;;;;;;5049996;28;20949;-68
2022/03/11 05:59:25;;;;;;;12.13;8.87;;;0.60;96.50;;;;;;5050203;28;20523;-67
2022/03/11 06:01:52;;;;;;;13.83;9.23;;;0.60;96.20;;;;;;5051115;28;20483;-68
2022/03/11 06:04:19;;;;;;;16.63;9.73;;;0.50;96.10;;;;;;5054041;28;20535;-67
2022/03/11 06:06:46;;;;;;;13.40;9.90;;;0.60;96.60;;;;;;5050026;28;20459;-67
2022/03/11 06:09:14;;;;;;;15.23;9.57;;;0.60;96.70;;;;;;5052539;28;20447;-67
2022/03/11 06:11:42;;;;;;;11.60;7.43;;;0.50;95.60;;;;;;5047428;28;20464;-67
2022/03/11 06:14:08;;;;;;;12.00;7.77;;;0.50;96.00;;;;;;5043914;28;20448;-67
2022/03/11 06:16:35;;;;;;;12.70;9.00;;;0.60;95.90;;;;;;5047670;28;20449;-67
2022/03/11 06:19:02;;;;;;;13.93;9.23;;;0.70;96.00;;;;;;5045929;28;20949;-67
2022/03/11 06:21:30;;;;;;;13.67;8.47;;;0.70;95.50;;;;;;5045548;28;20472;-67
2022/03/11 06:23:57;;;;;;;12.97;9.67;;;0.70;96.20;;;;;;5048486;28;20860;-67
2022/03/11 06:26:25;;;;;;;12.70;8.40;;;0.80;95.70;;;;;;5048814;28;20866;-66
2022/03/11 06:28:52;;;;;;;10.73;7.27;;;0.80;95.20;;;;;;5048987;28;20444;-66
2022/03/11 06:31:19;;;;;;;12.13;8.00;;;0.90;95.20;;;;;;5049149;28;20823;-66
2022/03/11 06:33:46;;;;;;;12.37;8.40;;;1.00;94.70;;;;;;5048946;28;20444;-66
2022/03/11 06:36:13;;;;;;;11.70;7.97;;;1.00;94.30;;;;;;5048898;28;20444;-66
2022/03/11 06:38:40;;;;;;;11.63;7.67;;;1.10;94.00;;;;;;5049238;28;20448;-67
2022/03/11 06:41:07;;;;;;;11.43;7.87;;;1.20;94.10;;;;;;5049168;28;20512;-67
2022/03/11 06:43:35;;;;;;;11.37;7.63;;;1.30;93.60;;;;;;5049208;28;20488;-66
2022/03/11 06:46:02;;;;;;;8.70;6.87;;;1.30;93.40;;;;;;5049018;28;20476;-66
2022/03/11 06:48:29;;;;;;;12.40;6.93;;;1.40;92.40;;;;;;5049065;28;20454;-67
2022/03/11 06:50:55;;;;;;;10.60;7.70;;;1.50;92.20;;;;;;5049231;28;20451;-67
2022/03/11 06:53:26;;;;;;;11.33;7.20;;;1.70;91.40;;;;;;5049175;28;20458;-67
2022/03/11 06:55:53;;;;;;;11.40;7.00;;;1.80;91.00;;;;;;5048972;28;20482;-67
2022/03/11 06:58:20;;;;;;;10.47;6.40;;;1.80;91.00;;;;;;5051467;28;20450;-67
2022/03/11 07:00:48;;;;;;;9.43;6.80;;;1.90;90.60;;;;;;5052531;28;20448;-67
2022/03/11 07:03:15;;;;;;;10.77;6.33;;;2.00;90.20;;;;;;5052931;28;20571;-67
2022/03/11 07:05:41;;;;;;;10.23;6.30;;;2.00;89.60;;;;;;5052529;28;20879;-67
2022/03/11 07:08:10;;;;;;;10.10;6.93;;;2.10;90.00;;;;;;5052806;28;20568;-67
2022/03/11 07:10:37;;;;;;;10.30;6.90;;;2.30;89.70;;;;;;5052837;28;20444;-67
2022/03/11 07:13:04;;;;;;;11.50;6.77;;;2.30;89.10;;;;;;5052636;28;20539;-67
2022/03/11 07:15:31;;;;;;;9.00;6.70;;;2.40;88.20;;;;;;5052290;28;20966;-67
2022/03/11 07:17:59;;;;;;;13.83;9.23;;;2.50;87.20;;;;;;5052802;28;20447;-66
2022/03/11 07:20:26;;;;;;;11.20;7.10;;;2.70;88.00;;;;;;5052642;28;20459;-67
2022/03/11 07:22:53;;;;;;;10.13;6.50;;;2.80;87.30;;;;;;5050289;28;20491;-67
2022/03/11 07:25:20;;;;;;;11.33;8.10;;;2.80;85.60;;;;;;5047267;28;20531;-67
2022/03/11 07:27:48;;;;;;;11.27;7.47;;;3.00;85.30;;;;;;5051886;28;20523;-67
2022/03/11 07:30:15;;;;;;;11.47;8.60;;;3.10;85.40;;;;;;5052470;28;20506;-67
2022/03/11 07:32:42;;;;;;;9.37;7.07;;;3.10;84.30;;;;;;5052223;28;20551;-67
2022/03/11 07:35:12;;;;;;;9.60;6.30;;;3.20;83.60;;;;;;5051692;28;20528;-67
2022/03/11 07:37:40;;;;;;;7.33;6.20;;;3.30;83.30;;;;;;5052141;28;20478;-67
2022/03/11 07:40:08;;;;;;;10.33;6.30;;;3.40;83.50;;;;;;5052107;28;20436;-67
2022/03/11 07:42:35;;;;;;;9.03;5.47;;;3.50;83.80;;;;;;5052043;28;20486;-67
2022/03/11 07:45:02;;;;;;;8.70;6.17;;;3.50;82.70;;;;;;5052056;28;20448;-67
2022/03/11 07:47:29;;;;;;;10.40;6.90;;;3.60;82.90;;;;;;5052485;28;20448;-67
2022/03/11 07:49:56;;;;;;;9.73;6.97;;;3.70;81.50;;;;;;5052186;28;20907;-67
2022/03/11 07:52:25;;;;;;;8.00;6.00;;;3.80;82.40;;;;;;5051939;28;20840;-67
2022/03/11 07:54:51;;;;;;;9.73;6.33;;;3.90;82.20;;;;;;5051408;28;21161;-66
2022/03/11 07:57:19;;;;;;;12.03;7.70;;;4.00;82.10;;;;;;5052396;28;20851;-67
2022/03/11 07:59:46;;;;;;;28.83;8.07;;;4.10;80.50;;;;;;5052014;28;20440;-67
2022/03/11 08:02:14;;;;;;;10.87;7.83;;;4.30;81.60;;;;;;5051695;28;20479;-68
2022/03/11 08:04:42;;;;;;;8.87;6.63;;;4.40;80.30;;;;;;5051233;28;20910;-67
2022/03/11 08:07:11;;;;;;;11.13;7.90;;;4.60;79.90;;;;;;5051476;28;20452;-67
2022/03/11 08:09:39;;;;;;;12.23;7.40;;;4.70;80.10;;;;;;5051232;28;20518;-67
2022/03/11 08:12:06;;;;;;;8.77;6.97;;;4.80;78.00;;;;;;5051554;28;20491;-67
2022/03/11 08:14:33;;;;;;;9.27;6.70;;;4.90;78.80;;;;;;5051152;28;20988;-67
2022/03/11 08:17:01;;;;;;;9.97;7.37;;;5.00;78.30;;;;;;5051561;28;20995;-66
2022/03/11 08:19:27;;;;;;;11.77;6.57;;;5.10;78.10;;;;;;5051997;28;20527;-65
2022/03/11 08:21:56;;;;;;;9.97;7.30;;;5.20;78.00;;;;;;5051458;28;20563;-66
2022/03/11 08:24:23;;;;;;;13.33;8.47;;;5.30;78.20;;;;;;5051365;28;20526;-65
2022/03/11 08:26:52;;;;;;;18.80;8.07;;;5.40;76.70;;;;;;5051739;28;20456;-66
2022/03/11 08:29:20;;;;;;;12.80;8.00;;;5.50;77.50;;;;;;5051611;28;20462;-65
2022/03/11 08:31:47;;;;;;;12.23;7.90;;;5.70;76.30;;;;;;5051539;28;20466;-66
2022/03/11 08:34:14;;;;;;;11.60;7.33;;;5.80;76.80;;;;;;5050955;28;20448;-66
2022/03/11 08:36:41;;;;;;;11.87;7.60;;;6.00;76.10;;;;;;5051268;28;20547;-66
2022/03/11 08:39:08;;;;;;;16.90;7.87;;;6.20;76.80;;;;;;5051418;28;20893;-66
2022/03/11 08:41:35;;;;;;;13.40;8.07;;;6.40;74.30;;;;;;5051028;28;20474;-66
2022/03/11 08:44:06;;;;;;;10.60;7.53;;;6.50;73.70;;;;;;5051232;28;20450;-66
2022/03/11 08:46:32;;;;;;;10.80;8.20;;;6.70;73.00;;;;;;5050863;28;20505;-66
2022/03/11 08:48:59;;;;;;;8.60;6.93;;;6.90;72.80;;;;;;5050825;28;20444;-66
2022/03/11 08:51:26;;;;;;;8.80;6.97;;;7.10;72.70;;;;;;5051069;28;20478;-66
2022/03/11 08:53:53;;;;;;;13.73;8.47;;;7.30;70.20;;;;;;5050733;28;20462;-66
2022/03/11 08:56:21;;;;;;;13.67;7.33;;;7.50;70.40;;;;;;5050575;28;20444;-66
2022/03/11 08:58:49;;;;;;;8.60;7.27;;;7.70;70.20;;;;;;5050779;28;20455;-66
2022/03/11 09:01:17;;;;;;;9.33;7.67;;;8.00;70.10;;;;;;5050728;28;20472;-66
2022/03/11 09:03:44;;;;;;;13.40;8.77;;;8.10;67.90;;;;;;5050487;28;20861;-66
2022/03/11 09:06:12;;;;;;;11.03;8.07;;;8.10;67.10;;;;;;5050307;28;21036;-66
2022/03/11 09:08:38;;;;;;;16.27;8.13;;;8.30;66.60;;;;;;5050521;28;20440;-66
2022/03/11 09:11:05;;;;;;;9.83;7.97;;;8.60;65.20;;;;;;5050616;28;20463;-66
2022/03/11 09:13:32;;;;;;;11.00;8.33;;;8.90;66.00;;;;;;5050475;28;20448;-66
2022/03/11 09:15:59;;;;;;;10.80;8.23;;;9.20;64.60;;;;;;5050035;28;20946;-66
2022/03/11 09:18:27;;;;;;;9.63;7.50;;;9.50;63.60;;;;;;5050709;28;20458;-66
2022/03/11 09:20:55;;;;;;;9.90;8.00;;;9.70;63.50;;;;;;5049601;28;20535;-66
2022/03/11 09:23:22;;;;;;;10.37;7.73;;;10.00;62.10;;;;;;5050353;28;20488;-66
2022/03/11 09:25:50;;;;;;;10.10;8.03;;;10.30;60.00;;;;;;5049945;28;20535;-66
2022/03/11 09:28:17;;;;;;;9.80;7.80;;;10.50;60.30;;;;;;5050160;28;20456;-66
2022/03/11 09:30:43;;;;;;;11.97;8.67;;;10.90;59.50;;;;;;5049993;28;20452;-66
2022/03/11 09:33:10;;;;;;;11.43;8.93;;;10.80;58.20;;;;;;5050173;28;20495;-66
2022/03/11 09:35:38;;;;;;;10.90;8.97;;;10.90;57.90;;;;;;5049915;28;20550;-66
2022/03/11 09:38:05;;;;;;;9.63;8.63;;;11.10;58.80;;;;;;5050212;28;20447;-66
2022/03/11 09:40:33;;;;;;;12.90;9.13;;;11.20;58.00;;;;;;5050259;28;20493;-66
2022/03/11 09:43:01;;;;;;;10.40;8.57;;;11.10;57.20;;;;;;5049962;28;20480;-66
2022/03/11 09:45:28;;;;;;;13.03;8.30;;;11.30;57.70;;;;;;5049669;28;20459;-66
2022/03/11 09:47:55;;;;;;;12.87;8.37;;;11.60;56.90;;;;;;5050086;28;20501;-65
2022/03/11 09:50:22;;;;;;;11.87;9.17;;;11.60;56.80;;;;;;5050324;28;20444;-67
2022/03/11 09:52:51;;;;;;;10.50;8.40;;;11.70;56.60;;;;;;5052108;28;20464;-66
2022/03/11 09:55:18;;;;;;;9.53;7.90;;;12.10;56.00;;;;;;5051187;28;20455;-66
2022/03/11 09:57:44;;;;;;;11.37;7.87;;;12.10;56.30;;;;;;5052838;28;20523;-66
2022/03/11 10:00:12;;;;;;;9.07;8.00;;;12.50;56.50;;;;;;5051225;28;21048;-66
2022/03/11 10:02:42;;;;;;;13.70;9.03;;;12.70;55.10;;;;;;5049549;28;20483;-66
2022/03/11 10:05:09;;;;;;;12.03;8.70;;;13.00;55.00;;;;;;5049514;28;20451;-67
2022/03/11 10:07:35;;;;;;;11.33;8.60;;;13.00;54.30;;;;;;5049631;28;20452;-66
2022/03/11 10:10:14;;;;;;;14.33;9.27;;;13.10;53.70;;;;;;5049623;28;20444;-66
2022/03/11 10:12:43;;;;;;;10.60;7.87;;;13.00;54.10;;;;;;5049844;28;20464;-66
2022/03/11 10:15:11;;;;;;;11.93;9.67;;;13.30;54.20;;;;;;5049155;28;20527;-66
2022/03/11 10:17:39;;;;;;;10.97;9.03;;;13.30;53.00;;;;;;5049691;28;20440;-66
2022/03/11 10:20:09;;;;;;;10.33;9.20;;;13.40;53.70;;;;;;5050136;28;20464;-66
2022/03/11 10:22:36;;;;;;;11.50;7.70;;;13.40;53.60;;;;;;5049979;28;21103;-67
2022/03/11 10:25:09;;;;;;;10.23;7.50;;;13.50;52.50;;;;;;5049536;28;20547;-66
2022/03/11 10:27:54;;;;;;;10.10;8.67;;;13.70;52.80;;;;;;5050257;28;20454;-67
2022/03/11 10:30:21;;;;;;;11.17;9.97;;;13.90;52.30;;;;;;5050398;28;20455;-66
2022/03/11 10:32:52;;;;;;;12.57;8.93;;;13.90;52.40;;;;;;5052886;28;20904;-66
2022/03/11 10:35:19;;;;;;;10.97;9.60;;;14.20;52.90;;;;;;5053677;28;20454;-66
2022/03/11 10:38:00;;;;;;;14.20;10.40;;;14.70;51.20;;;;;;5053904;28;20452;-66
2022/03/11 10:40:28;;;;;;;10.20;9.20;;;15.20;51.00;;;;;;5053824;28;20937;-66
2022/03/11 10:43:15;;;;;;;11.50;10.27;;;15.50;50.60;;;;;;5044317;28;20576;-66
2022/03/11 10:45:47;;;;;;;12.97;9.70;;;16.10;49.40;;;;;;5055477;28;20454;-66
2022/03/11 10:48:15;;;;;;;12.83;9.90;;;16.10;49.10;;;;;;5045867;28;21780;-66
2022/03/11 10:50:42;;;;;;;13.57;9.70;;;16.10;49.00;;;;;;5049908;28;20453;-66
2022/03/11 10:53:10;;;;;;;10.90;9.67;;;15.90;48.30;;;;;;5050551;28;20527;-66
2022/03/11 10:55:39;;;;;;;13.07;9.70;;;16.30;50.00;;;;;;5050028;28;20450;-66
2022/03/11 10:58:08;;;;;;;13.77;10.97;;;16.90;49.00;;;;;;5047877;28;20956;-66
2022/03/11 11:00:39;;;;;;;11.57;9.37;;;17.20;48.40;;;;;;5041193;28;20436;-66
2022/03/11 11:03:08;;;;;;;11.17;9.97;;;17.50;47.00;;;;;;5043572;28;20483;-66
2022/03/11 11:05:36;;;;;;;11.00;9.90;;;17.60;46.70;;;;;;5044104;28;20437;-66
2022/03/11 11:08:05;;;;;;;12.87;10.23;;;17.70;46.60;;;;;;5050340;28;20454;-66
2022/03/11 11:10:34;;;;;;;11.93;10.73;;;18.30;45.80;;;;;;5051434;28;20982;-66
2022/03/11 11:13:01;;;;;;;12.87;10.40;;;18.40;45.60;;;;;;5051728;28;20467;-66
2022/03/11 11:15:28;;;;;;;11.50;10.33;;;18.90;45.50;;;;;;5051598;28;20440;-66
2022/03/11 11:17:56;;;;;;;11.80;10.60;;;19.40;44.00;;;;;;5052955;28;20450;-66
2022/03/11 11:20:26;;;;;;;12.43;10.47;;;18.90;43.90;;;;;;5052471;28;21076;-66
2022/03/11 11:22:54;;;;;;;11.37;10.20;;;18.40;44.30;;;;;;5052299;28;20989;-66
2022/03/11 11:25:23;;;;;;;11.40;10.20;;;19.10;44.10;;;;;;5051912;28;20444;-66
2022/03/11 11:27:51;;;;;;;12.80;11.03;;;19.50;44.90;;;;;;5052397;28;20531;-66
2022/03/11 11:30:21;;;;;;;14.57;10.37;;;19.60;43.30;;;;;;5052296;28;20448;-66
2022/03/11 11:32:49;;;;;;;13.73;11.20;;;19.80;42.80;;;;;;5052530;28;21005;-66
2022/03/11 11:35:29;;;;;;;10.73;9.63;;;19.80;42.70;;;;;;5052223;28;20448;-67
2022/03/11 11:37:57;;;;;;;11.40;10.30;;;19.80;42.00;;;;;;5052280;28;20443;-66
2022/03/11 11:40:26;;;;;;;11.47;9.90;;;20.40;42.20;;;;;;5046042;28;20517;-66
2022/03/11 11:43:28;;;;;;;14.60;11.50;;;21.00;42.90;;;;;;5042833;28;20563;-66
2022/03/11 11:45:58;;;;;;;12.40;10.70;;;21.70;41.40;;;;;;5043533;28;20489;-66
2022/03/11 11:48:56;;;;;;;11.87;10.50;;;22.00;40.30;;;;;;5044995;28;20444;-66
2022/03/11 11:51:48;;;;;;;13.60;11.13;;;22.10;40.30;;;;;;5042690;28;20580;-66
2022/03/11 11:54:15;;;;;;;11.73;10.63;;;21.90;39.90;;;;;;5043136;28;20448;-66
2022/03/11 11:56:45;;;;;;;13.60;10.30;;;21.90;41.00;;;;;;5042846;28;20450;-66
2022/03/11 11:59:17;;;;;;;14.40;11.40;;;20.90;38.90;;;;;;5042461;28;20938;-66
2022/03/11 12:01:45;;;;;;;12.63;10.73;;;20.60;40.80;;;;;;5044802;28;20466;-66
2022/03/11 12:04:22;;;;;;;18.80;11.10;;;20.80;41.20;;;;;;5042820;28;20479;-66
2022/03/11 12:06:58;;;;;;;12.03;10.83;;;21.70;40.60;;;;;;5042735;28;20953;-66
2022/03/11 12:09:45;;;;;;;12.20;9.53;;;22.70;40.60;;;;;;5043192;28;20447;-66
2022/03/11 12:13:01;;;;;;;11.47;10.37;;;23.00;39.20;;;;;;5045603;28;20494;-66
2022/03/11 12:15:32;;;;;;;11.57;10.37;;;23.60;38.60;;;;;;5044513;28;20808;-66
2022/03/11 12:18:01;;;;;;;14.30;11.03;;;23.90;37.50;;;;;;5044398;28;20438;-67
2022/03/11 12:20:32;;;;;;;11.33;10.27;;;23.60;36.50;;;;;;5043913;28;20452;-66
2022/03/11 12:23:01;;;;;;;12.17;10.97;;;24.20;39.40;;;;;;5043676;28;20476;-65
2022/03/11 12:25:29;;;;;;;12.40;10.80;;;24.30;37.50;;;;;;5041559;28;20445;-66
2022/03/11 12:28:05;;;;;;;11.90;10.70;;;24.70;36.90;;;;;;5044294;28;20440;-65
2022/03/11 12:30:34;;;;;;;11.73;10.03;;;24.90;36.60;;;;;;5041858;28;20949;-65
2022/03/11 12:33:02;;;;;;;13.50;11.13;;;24.90;37.10;;;;;;5043666;28;20544;-66
2022/03/11 12:35:29;;;;;;;12.37;11.00;;;25.00;36.30;;;;;;5041402;28;20441;-66
2022/03/11 12:37:56;;;;;;;12.23;10.93;;;25.10;35.50;;;;;;5043897;28;20539;-65
2022/03/11 12:40:26;;;;;;;11.17;10.07;;;24.50;36.20;;;;;;5044209;28;20879;-66
2022/03/11 12:42:59;;;;;;;11.30;10.10;;;24.20;36.90;;;;;;5041898;28;20488;-67
2022/03/11 12:45:35;;;;;;;12.63;11.10;;;24.50;36.60;;;;;;5041429;28;20445;-66